sensor_id;sensor_type;location;lat;lon;timestamp;temperature;humidity
45283;DHT22;31023;44.994;1.796;2023-11-19T00:01:36;7.80;99.90
45283;DHT22;31023;44.994;1.796;2023-11-19T00:04:02;7.80;99.90
45283;DHT22;31023;44.994;1.796;2023-11-19T00:06:30;7.70;99.90
45283;DHT22;31023;44.994;1.796;2023-11-19T00:08:55;7.70;99.90
45283;DHT22;31023;44.994;1.796;2023-11-19T00:11:21;7.60;99.90
45283;DHT22;31023;44.994;1.796;2023-11-19T00:13:47;7.70;99.90
45283;DHT22;31023;44.994;1.796;2023-11-19T00:16:12;7.70;99.90
45283;DHT22;31023;44.994;1.796;2023-11-19T00:18:38;7.80;99.90
45283;DHT22;31023;44.994;1.796;2023-11-19T00:21:04;7.80;99.90
45283;DHT22;31023;44.994;1.796;2023-11-19T00:23:29;7.70;99.90
45283;DHT22;31023;44.994;1.796;2023-11-19T00:25:55;7.70;99.90
45283;DHT22;31023;44.994;1.796;2023-11-19T00:28:21;7.80;99.90
45283;DHT22;31023;44.994;1.796;2023-11-19T00:30:46;7.80;99.90
45283;DHT22;31023;44.994;1.796;2023-11-19T00:33:12;7.90;99.90
45283;DHT22;31023;44.994;1.796;2023-11-19T00:35:37;7.90;99.90
45283;DHT22;31023;44.994;1.796;2023-11-19T00:38:03;7.90;99.90
45283;DHT22;31023;44.994;1.796;2023-11-19T00:40:29;8.00;99.90
45283;DHT22;31023;44.994;1.796;2023-11-19T00:42:55;8.00;99.90
45283;DHT22;31023;44.994;1.796;2023-11-19T00:45:20;7.90;99.90
45283;DHT22;31023;44.994;1.796;2023-11-19T00:47:46;7.90;99.90
45283;DHT22;31023;44.994;1.796;2023-11-19T00:50:12;7.90;99.90
45283;DHT22;31023;44.994;1.796;2023-11-19T00:52:38;7.80;99.90
45283;DHT22;31023;44.994;1.796;2023-11-19T00:55:05;7.80;99.90
45283;DHT22;31023;44.994;1.796;2023-11-19T00:57:32;7.80;99.90
45283;DHT22;31023;44.994;1.796;2023-11-19T00:59:58;7.90;99.90
45283;DHT22;31023;44.994;1.796;2023-11-19T01:02:24;7.90;99.90
45283;DHT22;31023;44.994;1.796;2023-11-19T01:04:50;8.00;99.90
45283;DHT22;31023;44.994;1.796;2023-11-19T01:07:16;8.00;99.90
45283;DHT22;31023;44.994;1.796;2023-11-19T01:09:42;8.00;99.90
45283;DHT22;31023;44.994;1.796;2023-11-19T01:12:08;7.90;99.90
45283;DHT22;31023;44.994;1.796;2023-11-19T01:14:35;7.70;99.90
45283;DHT22;31023;44.994;1.796;2023-11-19T01:17:01;7.50;99.90
45283;DHT22;31023;44.994;1.796;2023-11-19T01:19:27;7.40;99.90
45283;DHT22;31023;44.994;1.796;2023-11-19T01:21:54;7.30;99.90
45283;DHT22;31023;44.994;1.796;2023-11-19T01:24:20;7.30;99.90
45283;DHT22;31023;44.994;1.796;2023-11-19T01:26:46;7.40;99.90
45283;DHT22;31023;44.994;1.796;2023-11-19T01:29:15;7.30;99.90
45283;DHT22;31023;44.994;1.796;2023-11-19T01:31:41;7.30;99.90
45283;DHT22;31023;44.994;1.796;2023-11-19T01:34:07;7.30;99.90
45283;DHT22;31023;44.994;1.796;2023-11-19T01:36:33;7.30;99.90
45283;DHT22;31023;44.994;1.796;2023-11-19T01:38:58;7.30;99.90
45283;DHT22;31023;44.994;1.796;2023-11-19T01:41:24;7.30;99.90
45283;DHT22;31023;44.994;1.796;2023-11-19T01:43:50;7.30;99.90
45283;DHT22;31023;44.994;1.796;2023-11-19T01:46:16;7.20;99.90
45283;DHT22;31023;44.994;1.796;2023-11-19T01:48:45;7.20;99.90
45283;DHT22;31023;44.994;1.796;2023-11-19T01:51:12;7.20;99.90
45283;DHT22;31023;44.994;1.796;2023-11-19T01:53:39;7.20;99.90
45283;DHT22;31023;44.994;1.796;2023-11-19T01:56:07;7.20;99.90
45283;DHT22;31023;44.994;1.796;2023-11-19T01:58:38;7.10;99.90
45283;DHT22;31023;44.994;1.796;2023-11-19T02:01:05;7.10;99.90
45283;DHT22;31023;44.994;1.796;2023-11-19T02:03:32;7.10;99.90
45283;DHT22;31023;44.994;1.796;2023-11-19T02:05:59;7.10;99.90
45283;DHT22;31023;44.994;1.796;2023-11-19T02:08:25;7.10;99.90
45283;DHT22;31023;44.994;1.796;2023-11-19T02:10:52;7.10;99.90
45283;DHT22;31023;44.994;1.796;2023-11-19T02:13:18;7.10;99.90
45283;DHT22;31023;44.994;1.796;2023-11-19T02:15:44;7.20;99.90
45283;DHT22;31023;44.994;1.796;2023-11-19T02:18:23;7.20;99.90
45283;DHT22;31023;44.994;1.796;2023-11-19T02:20:49;7.20;99.90
45283;DHT22;31023;44.994;1.796;2023-11-19T02:23:16;7.20;99.90
45283;DHT22;31023;44.994;1.796;2023-11-19T02:25:43;7.30;99.90
45283;DHT22;31023;44.994;1.796;2023-11-19T02:28:12;7.30;99.90
45283;DHT22;31023;44.994;1.796;2023-11-19T02:30:38;7.30;99.90
45283;DHT22;31023;44.994;1.796;2023-11-19T02:33:04;7.20;99.90
45283;DHT22;31023;44.994;1.796;2023-11-19T02:35:33;7.10;99.90
45283;DHT22;31023;44.994;1.796;2023-11-19T02:37:59;7.10;99.90
45283;DHT22;31023;44.994;1.796;2023-11-19T02:40:26;7.00;99.90
45283;DHT22;31023;44.994;1.796;2023-11-19T02:42:52;7.00;99.90
45283;DHT22;31023;44.994;1.796;2023-11-19T02:45:18;6.90;99.90
45283;DHT22;31023;44.994;1.796;2023-11-19T02:47:45;6.90;99.90
45283;DHT22;31023;44.994;1.796;2023-11-19T02:50:11;6.90;99.90
45283;DHT22;31023;44.994;1.796;2023-11-19T02:52:44;6.90;99.90
45283;DHT22;31023;44.994;1.796;2023-11-19T02:55:12;6.90;99.90
45283;DHT22;31023;44.994;1.796;2023-11-19T02:57:41;6.90;99.90
45283;DHT22;31023;44.994;1.796;2023-11-19T03:00:19;6.90;99.90
45283;DHT22;31023;44.994;1.796;2023-11-19T03:02:49;6.80;99.90
45283;DHT22;31023;44.994;1.796;2023-11-19T03:05:24;6.80;99.90
45283;DHT22;31023;44.994;1.796;2023-11-19T03:07:50;6.80;99.90
45283;DHT22;31023;44.994;1.796;2023-11-19T03:10:16;6.80;99.90
45283;DHT22;31023;44.994;1.796;2023-11-19T03:12:43;6.70;99.90
45283;DHT22;31023;44.994;1.796;2023-11-19T03:15:09;6.70;99.90
45283;DHT22;31023;44.994;1.796;2023-11-19T03:17:38;6.70;99.90
45283;DHT22;31023;44.994;1.796;2023-11-19T03:20:07;6.70;99.90
45283;DHT22;31023;44.994;1.796;2023-11-19T03:22:36;6.70;99.90
45283;DHT22;31023;44.994;1.796;2023-11-19T03:25:02;6.70;99.90
45283;DHT22;31023;44.994;1.796;2023-11-19T03:27:27;6.70;99.90
45283;DHT22;31023;44.994;1.796;2023-11-19T03:29:53;6.70;99.90
45283;DHT22;31023;44.994;1.796;2023-11-19T03:32:19;6.60;99.90
45283;DHT22;31023;44.994;1.796;2023-11-19T03:34:45;6.60;99.90
45283;DHT22;31023;44.994;1.796;2023-11-19T03:37:11;6.60;99.90
45283;DHT22;31023;44.994;1.796;2023-11-19T03:39:37;6.60;99.90
45283;DHT22;31023;44.994;1.796;2023-11-19T03:42:02;6.60;99.90
45283;DHT22;31023;44.994;1.796;2023-11-19T03:44:28;6.50;99.90
45283;DHT22;31023;44.994;1.796;2023-11-19T03:46:54;6.50;99.90
45283;DHT22;31023;44.994;1.796;2023-11-19T03:49:20;6.50;99.90
45283;DHT22;31023;44.994;1.796;2023-11-19T03:51:45;6.50;99.90
45283;DHT22;31023;44.994;1.796;2023-11-19T03:54:11;6.50;99.90
45283;DHT22;31023;44.994;1.796;2023-11-19T03:56:37;6.50;99.90
45283;DHT22;31023;44.994;1.796;2023-11-19T03:59:03;6.50;99.90
45283;DHT22;31023;44.994;1.796;2023-11-19T04:01:28;6.40;99.90
45283;DHT22;31023;44.994;1.796;2023-11-19T04:03:54;6.40;99.90
45283;DHT22;31023;44.994;1.796;2023-11-19T04:06:21;6.40;99.90
45283;DHT22;31023;44.994;1.796;2023-11-19T04:08:47;6.40;99.90
45283;DHT22;31023;44.994;1.796;2023-11-19T04:11:12;6.30;99.90
45283;DHT22;31023;44.994;1.796;2023-11-19T04:13:38;6.40;99.90
45283;DHT22;31023;44.994;1.796;2023-11-19T04:16:04;6.50;99.90
45283;DHT22;31023;44.994;1.796;2023-11-19T04:18:30;6.50;99.90
45283;DHT22;31023;44.994;1.796;2023-11-19T04:20:57;6.50;99.90
45283;DHT22;31023;44.994;1.796;2023-11-19T04:23:23;6.50;99.90
45283;DHT22;31023;44.994;1.796;2023-11-19T04:25:50;6.40;99.90
45283;DHT22;31023;44.994;1.796;2023-11-19T04:28:16;6.50;99.90
45283;DHT22;31023;44.994;1.796;2023-11-19T04:30:41;6.40;99.90
45283;DHT22;31023;44.994;1.796;2023-11-19T04:33:07;6.30;99.90
45283;DHT22;31023;44.994;1.796;2023-11-19T04:35:33;6.40;99.90
45283;DHT22;31023;44.994;1.796;2023-11-19T04:37:58;6.40;99.90
45283;DHT22;31023;44.994;1.796;2023-11-19T04:40:24;6.40;99.90
45283;DHT22;31023;44.994;1.796;2023-11-19T04:42:50;6.50;99.90
45283;DHT22;31023;44.994;1.796;2023-11-19T04:45:16;6.50;99.90
45283;DHT22;31023;44.994;1.796;2023-11-19T04:47:42;6.70;99.90
45283;DHT22;31023;44.994;1.796;2023-11-19T04:50:08;6.80;99.90
45283;DHT22;31023;44.994;1.796;2023-11-19T04:52:40;6.90;99.90
45283;DHT22;31023;44.994;1.796;2023-11-19T04:55:06;7.00;99.90
45283;DHT22;31023;44.994;1.796;2023-11-19T04:57:32;7.10;99.90
45283;DHT22;31023;44.994;1.796;2023-11-19T04:59:58;7.10;99.90
45283;DHT22;31023;44.994;1.796;2023-11-19T05:02:24;7.20;99.90
45283;DHT22;31023;44.994;1.796;2023-11-19T05:04:49;7.20;99.90
45283;DHT22;31023;44.994;1.796;2023-11-19T05:07:15;7.30;99.90
45283;DHT22;31023;44.994;1.796;2023-11-19T05:09:40;7.20;99.90
45283;DHT22;31023;44.994;1.796;2023-11-19T05:12:06;7.30;99.90
45283;DHT22;31023;44.994;1.796;2023-11-19T05:14:35;7.30;99.90
45283;DHT22;31023;44.994;1.796;2023-11-19T05:17:01;7.30;99.90
45283;DHT22;31023;44.994;1.796;2023-11-19T05:19:26;7.30;99.90
45283;DHT22;31023;44.994;1.796;2023-11-19T05:21:52;7.30;99.90
45283;DHT22;31023;44.994;1.796;2023-11-19T05:24:18;7.30;99.90
45283;DHT22;31023;44.994;1.796;2023-11-19T05:26:43;7.30;99.90
45283;DHT22;31023;44.994;1.796;2023-11-19T05:29:09;7.40;99.90
45283;DHT22;31023;44.994;1.796;2023-11-19T05:31:35;7.40;99.90
45283;DHT22;31023;44.994;1.796;2023-11-19T05:34:00;7.50;99.90
45283;DHT22;31023;44.994;1.796;2023-11-19T05:36:26;7.40;99.90
45283;DHT22;31023;44.994;1.796;2023-11-19T05:38:53;7.40;99.90
45283;DHT22;31023;44.994;1.796;2023-11-19T05:41:18;7.40;99.90
45283;DHT22;31023;44.994;1.796;2023-11-19T05:43:44;7.40;99.90
45283;DHT22;31023;44.994;1.796;2023-11-19T05:46:09;7.50;99.90
45283;DHT22;31023;44.994;1.796;2023-11-19T05:48:35;7.60;99.90
45283;DHT22;31023;44.994;1.796;2023-11-19T05:51:01;7.50;99.90
45283;DHT22;31023;44.994;1.796;2023-11-19T05:53:26;7.60;99.90
45283;DHT22;31023;44.994;1.796;2023-11-19T05:55:52;7.50;99.90
45283;DHT22;31023;44.994;1.796;2023-11-19T05:58:24;7.50;99.90
45283;DHT22;31023;44.994;1.796;2023-11-19T06:00:52;7.50;99.90
45283;DHT22;31023;44.994;1.796;2023-11-19T06:03:17;7.60;99.90
45283;DHT22;31023;44.994;1.796;2023-11-19T06:05:47;7.60;99.90
45283;DHT22;31023;44.994;1.796;2023-11-19T06:08:12;7.60;99.90
45283;DHT22;31023;44.994;1.796;2023-11-19T06:10:40;7.60;99.90
45283;DHT22;31023;44.994;1.796;2023-11-19T06:13:05;7.60;99.90
45283;DHT22;31023;44.994;1.796;2023-11-19T06:15:32;7.70;99.90
45283;DHT22;31023;44.994;1.796;2023-11-19T06:17:58;7.70;99.90
45283;DHT22;31023;44.994;1.796;2023-11-19T06:20:26;7.80;99.90
45283;DHT22;31023;44.994;1.796;2023-11-19T06:22:54;7.70;99.90
45283;DHT22;31023;44.994;1.796;2023-11-19T06:25:20;7.70;99.90
45283;DHT22;31023;44.994;1.796;2023-11-19T06:27:46;7.60;99.90
45283;DHT22;31023;44.994;1.796;2023-11-19T06:30:12;7.70;99.90
45283;DHT22;31023;44.994;1.796;2023-11-19T06:32:37;7.70;99.90
45283;DHT22;31023;44.994;1.796;2023-11-19T06:35:03;7.70;99.90
45283;DHT22;31023;44.994;1.796;2023-11-19T06:37:32;7.70;99.90
45283;DHT22;31023;44.994;1.796;2023-11-19T06:39:58;7.60;99.90
45283;DHT22;31023;44.994;1.796;2023-11-19T06:42:24;7.80;99.90
45283;DHT22;31023;44.994;1.796;2023-11-19T06:44:50;7.90;99.90
45283;DHT22;31023;44.994;1.796;2023-11-19T06:47:17;7.80;99.90
45283;DHT22;31023;44.994;1.796;2023-11-19T06:49:44;7.40;99.90
45283;DHT22;31023;44.994;1.796;2023-11-19T06:52:10;7.10;99.90
45283;DHT22;31023;44.994;1.796;2023-11-19T06:54:36;7.10;99.90
45283;DHT22;31023;44.994;1.796;2023-11-19T06:57:03;7.10;99.90
45283;DHT22;31023;44.994;1.796;2023-11-19T06:59:30;7.20;99.90
45283;DHT22;31023;44.994;1.796;2023-11-19T07:01:56;7.40;99.90
45283;DHT22;31023;44.994;1.796;2023-11-19T07:04:22;7.40;99.90
45283;DHT22;31023;44.994;1.796;2023-11-19T07:06:47;7.50;99.90
45283;DHT22;31023;44.994;1.796;2023-11-19T07:09:14;7.60;99.90
45283;DHT22;31023;44.994;1.796;2023-11-19T07:11:40;7.70;99.90
45283;DHT22;31023;44.994;1.796;2023-11-19T07:14:07;7.60;99.90
45283;DHT22;31023;44.994;1.796;2023-11-19T07:16:34;7.70;99.90
45283;DHT22;31023;44.994;1.796;2023-11-19T07:19:00;7.60;99.90
45283;DHT22;31023;44.994;1.796;2023-11-19T07:21:27;7.60;99.90
45283;DHT22;31023;44.994;1.796;2023-11-19T07:23:55;7.70;99.90
45283;DHT22;31023;44.994;1.796;2023-11-19T07:26:21;8.30;99.90
45283;DHT22;31023;44.994;1.796;2023-11-19T07:28:48;9.00;99.90
45283;DHT22;31023;44.994;1.796;2023-11-19T07:31:13;9.90;99.90
45283;DHT22;31023;44.994;1.796;2023-11-19T07:33:39;10.00;99.90
45283;DHT22;31023;44.994;1.796;2023-11-19T07:36:08;10.20;99.90
45283;DHT22;31023;44.994;1.796;2023-11-19T07:38:34;10.40;99.90
45283;DHT22;31023;44.994;1.796;2023-11-19T07:41:00;11.00;99.90
45283;DHT22;31023;44.994;1.796;2023-11-19T07:43:26;10.90;99.90
45283;DHT22;31023;44.994;1.796;2023-11-19T07:45:52;10.80;99.90
45283;DHT22;31023;44.994;1.796;2023-11-19T07:48:17;10.50;99.90
45283;DHT22;31023;44.994;1.796;2023-11-19T07:50:48;10.00;99.90
45283;DHT22;31023;44.994;1.796;2023-11-19T07:53:16;10.10;99.90
45283;DHT22;31023;44.994;1.796;2023-11-19T07:55:42;9.70;99.90
45283;DHT22;31023;44.994;1.796;2023-11-19T07:58:07;9.30;99.90
45283;DHT22;31023;44.994;1.796;2023-11-19T08:00:33;8.90;99.90
45283;DHT22;31023;44.994;1.796;2023-11-19T08:02:58;8.90;99.90
45283;DHT22;31023;44.994;1.796;2023-11-19T08:05:24;8.80;99.90
45283;DHT22;31023;44.994;1.796;2023-11-19T08:07:50;8.90;99.90
45283;DHT22;31023;44.994;1.796;2023-11-19T08:10:19;8.90;99.90
45283;DHT22;31023;44.994;1.796;2023-11-19T08:12:44;9.00;99.90
45283;DHT22;31023;44.994;1.796;2023-11-19T08:15:10;9.20;99.90
45283;DHT22;31023;44.994;1.796;2023-11-19T08:17:36;9.40;99.90
45283;DHT22;31023;44.994;1.796;2023-11-19T08:20:02;9.60;99.90
45283;DHT22;31023;44.994;1.796;2023-11-19T08:22:30;9.90;99.90
45283;DHT22;31023;44.994;1.796;2023-11-19T08:24:56;10.00;99.90
45283;DHT22;31023;44.994;1.796;2023-11-19T08:27:22;9.90;99.90
45283;DHT22;31023;44.994;1.796;2023-11-19T08:29:53;10.00;99.90
45283;DHT22;31023;44.994;1.796;2023-11-19T08:32:21;9.90;99.90
45283;DHT22;31023;44.994;1.796;2023-11-19T08:34:46;10.00;99.90
45283;DHT22;31023;44.994;1.796;2023-11-19T08:37:12;10.10;99.90
45283;DHT22;31023;44.994;1.796;2023-11-19T08:39:38;10.10;99.90
45283;DHT22;31023;44.994;1.796;2023-11-19T08:42:04;10.20;99.90
45283;DHT22;31023;44.994;1.796;2023-11-19T08:44:29;10.30;99.90
45283;DHT22;31023;44.994;1.796;2023-11-19T08:46:55;10.30;99.90
45283;DHT22;31023;44.994;1.796;2023-11-19T08:49:21;10.50;99.90
45283;DHT22;31023;44.994;1.796;2023-11-19T08:51:46;10.50;99.90
45283;DHT22;31023;44.994;1.796;2023-11-19T08:54:12;10.40;99.90
45283;DHT22;31023;44.994;1.796;2023-11-19T08:56:39;10.10;99.90
45283;DHT22;31023;44.994;1.796;2023-11-19T08:59:05;10.20;99.90
45283;DHT22;31023;44.994;1.796;2023-11-19T09:01:31;10.40;99.90
45283;DHT22;31023;44.994;1.796;2023-11-19T09:03:56;10.60;99.90
45283;DHT22;31023;44.994;1.796;2023-11-19T09:06:23;10.50;99.90
45283;DHT22;31023;44.994;1.796;2023-11-19T09:08:48;10.40;99.90
45283;DHT22;31023;44.994;1.796;2023-11-19T09:11:14;10.30;99.90
45283;DHT22;31023;44.994;1.796;2023-11-19T09:13:39;10.30;99.90
45283;DHT22;31023;44.994;1.796;2023-11-19T09:16:05;10.20;99.90
45283;DHT22;31023;44.994;1.796;2023-11-19T09:18:31;10.20;99.90
45283;DHT22;31023;44.994;1.796;2023-11-19T09:20:57;10.30;99.90
45283;DHT22;31023;44.994;1.796;2023-11-19T09:23:23;10.40;99.90
45283;DHT22;31023;44.994;1.796;2023-11-19T09:25:50;10.30;99.90
45283;DHT22;31023;44.994;1.796;2023-11-19T09:28:16;10.40;99.90
45283;DHT22;31023;44.994;1.796;2023-11-19T09:30:42;10.40;99.90
45283;DHT22;31023;44.994;1.796;2023-11-19T09:33:07;10.50;99.90
45283;DHT22;31023;44.994;1.796;2023-11-19T09:35:33;10.60;99.90
45283;DHT22;31023;44.994;1.796;2023-11-19T09:37:59;10.70;99.90
45283;DHT22;31023;44.994;1.796;2023-11-19T09:40:24;10.70;99.90
45283;DHT22;31023;44.994;1.796;2023-11-19T09:42:51;10.70;99.90
45283;DHT22;31023;44.994;1.796;2023-11-19T09:45:17;10.60;99.90
45283;DHT22;31023;44.994;1.796;2023-11-19T09:47:46;10.40;99.90
45283;DHT22;31023;44.994;1.796;2023-11-19T09:50:19;10.30;99.90
45283;DHT22;31023;44.994;1.796;2023-11-19T09:52:46;10.20;99.90
45283;DHT22;31023;44.994;1.796;2023-11-19T09:55:12;10.30;99.90
45283;DHT22;31023;44.994;1.796;2023-11-19T09:57:40;10.40;99.90
45283;DHT22;31023;44.994;1.796;2023-11-19T10:00:07;10.50;99.90
45283;DHT22;31023;44.994;1.796;2023-11-19T10:02:36;10.50;99.90
45283;DHT22;31023;44.994;1.796;2023-11-19T10:05:07;10.40;99.90
45283;DHT22;31023;44.994;1.796;2023-11-19T10:07:33;10.40;99.90
45283;DHT22;31023;44.994;1.796;2023-11-19T10:10:03;10.70;99.90
45283;DHT22;31023;44.994;1.796;2023-11-19T10:12:33;10.90;99.90
45283;DHT22;31023;44.994;1.796;2023-11-19T10:14:59;11.00;99.90
45283;DHT22;31023;44.994;1.796;2023-11-19T10:17:33;11.30;99.90
45283;DHT22;31023;44.994;1.796;2023-11-19T10:19:59;11.30;99.90
45283;DHT22;31023;44.994;1.796;2023-11-19T10:22:25;11.20;99.90
45283;DHT22;31023;44.994;1.796;2023-11-19T10:24:52;11.40;99.90
45283;DHT22;31023;44.994;1.796;2023-11-19T10:27:18;11.30;99.90
45283;DHT22;31023;44.994;1.796;2023-11-19T10:29:47;11.40;99.90
45283;DHT22;31023;44.994;1.796;2023-11-19T10:32:13;11.40;99.90
45283;DHT22;31023;44.994;1.796;2023-11-19T10:34:40;11.40;99.90
45283;DHT22;31023;44.994;1.796;2023-11-19T10:37:07;11.60;99.90
45283;DHT22;31023;44.994;1.796;2023-11-19T10:40:05;11.60;99.90
45283;DHT22;31023;44.994;1.796;2023-11-19T10:42:31;11.40;99.90
45283;DHT22;31023;44.994;1.796;2023-11-19T10:44:57;11.40;99.90
45283;DHT22;31023;44.994;1.796;2023-11-19T10:47:23;11.60;99.90
45283;DHT22;31023;44.994;1.796;2023-11-19T10:49:49;11.70;99.90
45283;DHT22;31023;44.994;1.796;2023-11-19T10:52:18;11.80;99.90
45283;DHT22;31023;44.994;1.796;2023-11-19T10:54:49;11.90;99.90
45283;DHT22;31023;44.994;1.796;2023-11-19T10:57:19;12.10;99.90
45283;DHT22;31023;44.994;1.796;2023-11-19T10:59:45;12.20;99.90
45283;DHT22;31023;44.994;1.796;2023-11-19T11:02:16;12.30;99.90
45283;DHT22;31023;44.994;1.796;2023-11-19T11:04:46;12.40;99.90
45283;DHT22;31023;44.994;1.796;2023-11-19T11:07:14;12.40;99.90
45283;DHT22;31023;44.994;1.796;2023-11-19T11:09:41;12.50;99.90
45283;DHT22;31023;44.994;1.796;2023-11-19T11:12:09;12.60;99.90
45283;DHT22;31023;44.994;1.796;2023-11-19T11:14:38;12.80;99.90
45283;DHT22;31023;44.994;1.796;2023-11-19T11:17:06;13.00;99.90
45283;DHT22;31023;44.994;1.796;2023-11-19T11:19:34;13.10;99.90
45283;DHT22;31023;44.994;1.796;2023-11-19T11:22:00;13.30;99.90
45283;DHT22;31023;44.994;1.796;2023-11-19T11:38:03;14.80;99.70
45283;DHT22;31023;44.994;1.796;2023-11-19T11:40:29;14.80;99.60
45283;DHT22;31023;44.994;1.796;2023-11-19T11:42:55;14.50;99.90
45283;DHT22;31023;44.994;1.796;2023-11-19T11:45:38;13.90;99.90
45283;DHT22;31023;44.994;1.796;2023-11-19T11:48:16;13.60;99.90
45283;DHT22;31023;44.994;1.796;2023-11-19T11:50:54;13.60;99.90
45283;DHT22;31023;44.994;1.796;2023-11-19T11:53:21;14.10;99.90
45283;DHT22;31023;44.994;1.796;2023-11-19T11:58:20;13.70;99.90
45283;DHT22;31023;44.994;1.796;2023-11-19T12:00:47;13.40;99.90
45283;DHT22;31023;44.994;1.796;2023-11-19T12:03:13;13.40;99.90
45283;DHT22;31023;44.994;1.796;2023-11-19T12:05:41;13.30;99.90
45283;DHT22;31023;44.994;1.796;2023-11-19T12:08:09;13.30;99.90
45283;DHT22;31023;44.994;1.796;2023-11-19T12:10:43;13.30;99.90
45283;DHT22;31023;44.994;1.796;2023-11-19T12:13:09;13.30;99.90
45283;DHT22;31023;44.994;1.796;2023-11-19T12:18:27;13.50;99.90
45283;DHT22;31023;44.994;1.796;2023-11-19T12:20:54;13.40;99.90
45283;DHT22;31023;44.994;1.796;2023-11-19T12:23:20;13.40;99.90
45283;DHT22;31023;44.994;1.796;2023-11-19T12:25:46;13.40;99.90
45283;DHT22;31023;44.994;1.796;2023-11-19T12:28:12;13.50;99.90
45283;DHT22;31023;44.994;1.796;2023-11-19T12:30:38;13.50;99.90
45283;DHT22;31023;44.994;1.796;2023-11-19T12:33:11;13.50;99.90
45283;DHT22;31023;44.994;1.796;2023-11-19T12:35:41;13.70;99.90
45283;DHT22;31023;44.994;1.796;2023-11-19T12:38:08;13.80;99.90
45283;DHT22;31023;44.994;1.796;2023-11-19T12:40:34;13.80;99.90
45283;DHT22;31023;44.994;1.796;2023-11-19T12:42:59;13.80;99.90
45283;DHT22;31023;44.994;1.796;2023-11-19T12:45:35;13.80;99.90
45283;DHT22;31023;44.994;1.796;2023-11-19T12:48:05;13.80;99.90
45283;DHT22;31023;44.994;1.796;2023-11-19T12:50:53;14.00;99.90
45283;DHT22;31023;44.994;1.796;2023-11-19T12:53:20;14.00;99.90
45283;DHT22;31023;44.994;1.796;2023-11-19T12:55:45;14.00;99.90
45283;DHT22;31023;44.994;1.796;2023-11-19T12:58:28;13.90;99.90
45283;DHT22;31023;44.994;1.796;2023-11-19T13:01:05;13.90;99.90
45283;DHT22;31023;44.994;1.796;2023-11-19T13:03:36;14.00;99.90
45283;DHT22;31023;44.994;1.796;2023-11-19T13:06:12;14.00;99.90
45283;DHT22;31023;44.994;1.796;2023-11-19T13:08:49;13.90;99.90
45283;DHT22;31023;44.994;1.796;2023-11-19T13:11:31;14.00;99.90
45283;DHT22;31023;44.994;1.796;2023-11-19T13:14:02;14.00;99.90
45283;DHT22;31023;44.994;1.796;2023-11-19T13:16:30;13.80;99.90
45283;DHT22;31023;44.994;1.796;2023-11-19T13:18:57;13.70;99.90
45283;DHT22;31023;44.994;1.796;2023-11-19T13:21:23;13.70;99.90
45283;DHT22;31023;44.994;1.796;2023-11-19T13:23:49;13.80;99.90
45283;DHT22;31023;44.994;1.796;2023-11-19T13:26:15;13.80;99.90
45283;DHT22;31023;44.994;1.796;2023-11-19T13:28:41;13.80;99.90
45283;DHT22;31023;44.994;1.796;2023-11-19T13:31:07;13.60;99.90
45283;DHT22;31023;44.994;1.796;2023-11-19T13:33:33;13.50;99.90
45283;DHT22;31023;44.994;1.796;2023-11-19T13:35:59;13.60;99.90
45283;DHT22;31023;44.994;1.796;2023-11-19T13:38:31;13.50;99.90
45283;DHT22;31023;44.994;1.796;2023-11-19T13:40:57;13.40;99.90
45283;DHT22;31023;44.994;1.796;2023-11-19T13:43:22;13.20;99.90
45283;DHT22;31023;44.994;1.796;2023-11-19T13:45:48;13.20;99.90
45283;DHT22;31023;44.994;1.796;2023-11-19T13:48:14;13.20;99.90
45283;DHT22;31023;44.994;1.796;2023-11-19T13:50:39;13.20;99.90
45283;DHT22;31023;44.994;1.796;2023-11-19T13:53:05;13.20;99.90
45283;DHT22;31023;44.994;1.796;2023-11-19T13:55:30;13.20;99.90
45283;DHT22;31023;44.994;1.796;2023-11-19T13:57:56;13.20;99.90
45283;DHT22;31023;44.994;1.796;2023-11-19T14:00:22;13.20;99.90
45283;DHT22;31023;44.994;1.796;2023-11-19T14:02:49;13.30;99.90
45283;DHT22;31023;44.994;1.796;2023-11-19T14:05:15;13.30;99.90
45283;DHT22;31023;44.994;1.796;2023-11-19T14:07:44;13.30;99.90
45283;DHT22;31023;44.994;1.796;2023-11-19T14:10:13;13.40;99.90
45283;DHT22;31023;44.994;1.796;2023-11-19T14:12:39;13.40;99.90
45283;DHT22;31023;44.994;1.796;2023-11-19T14:15:09;13.60;99.90
45283;DHT22;31023;44.994;1.796;2023-11-19T14:17:37;13.50;99.90
45283;DHT22;31023;44.994;1.796;2023-11-19T14:20:03;13.50;99.90
45283;DHT22;31023;44.994;1.796;2023-11-19T14:22:39;13.50;99.90
45283;DHT22;31023;44.994;1.796;2023-11-19T14:25:06;13.40;99.90
45283;DHT22;31023;44.994;1.796;2023-11-19T14:27:38;13.40;99.90
45283;DHT22;31023;44.994;1.796;2023-11-19T14:30:07;13.30;99.90
45283;DHT22;31023;44.994;1.796;2023-11-19T14:32:35;13.30;99.90
45283;DHT22;31023;44.994;1.796;2023-11-19T14:35:00;13.40;99.90
45283;DHT22;31023;44.994;1.796;2023-11-19T14:37:26;13.50;99.90
45283;DHT22;31023;44.994;1.796;2023-11-19T14:39:52;13.60;99.90
45283;DHT22;31023;44.994;1.796;2023-11-19T14:42:17;13.50;99.90
45283;DHT22;31023;44.994;1.796;2023-11-19T14:44:43;13.50;99.90
45283;DHT22;31023;44.994;1.796;2023-11-19T14:47:09;13.50;99.90
45283;DHT22;31023;44.994;1.796;2023-11-19T14:49:36;13.40;99.90
45283;DHT22;31023;44.994;1.796;2023-11-19T14:52:03;13.30;99.90
45283;DHT22;31023;44.994;1.796;2023-11-19T14:54:29;13.30;99.90
45283;DHT22;31023;44.994;1.796;2023-11-19T14:56:54;13.20;99.90
45283;DHT22;31023;44.994;1.796;2023-11-19T14:59:20;13.10;99.90
45283;DHT22;31023;44.994;1.796;2023-11-19T15:01:46;13.10;99.90
45283;DHT22;31023;44.994;1.796;2023-11-19T15:04:11;13.10;99.90
45283;DHT22;31023;44.994;1.796;2023-11-19T15:06:37;13.10;99.90
45283;DHT22;31023;44.994;1.796;2023-11-19T15:09:04;13.10;99.90
45283;DHT22;31023;44.994;1.796;2023-11-19T15:11:30;13.10;99.90
45283;DHT22;31023;44.994;1.796;2023-11-19T15:13:55;13.10;99.90
45283;DHT22;31023;44.994;1.796;2023-11-19T15:16:21;13.10;99.90
45283;DHT22;31023;44.994;1.796;2023-11-19T15:18:57;13.00;99.90
45283;DHT22;31023;44.994;1.796;2023-11-19T15:21:25;13.00;99.90
45283;DHT22;31023;44.994;1.796;2023-11-19T15:23:51;12.90;99.90
45283;DHT22;31023;44.994;1.796;2023-11-19T15:26:17;12.80;99.90
45283;DHT22;31023;44.994;1.796;2023-11-19T15:28:43;12.90;99.90
45283;DHT22;31023;44.994;1.796;2023-11-19T15:31:09;12.90;99.90
45283;DHT22;31023;44.994;1.796;2023-11-19T15:33:35;12.90;99.90
45283;DHT22;31023;44.994;1.796;2023-11-19T15:36:01;12.80;99.90
45283;DHT22;31023;44.994;1.796;2023-11-19T15:38:28;12.90;99.90
45283;DHT22;31023;44.994;1.796;2023-11-19T15:40:55;12.80;99.90
45283;DHT22;31023;44.994;1.796;2023-11-19T15:43:20;12.80;99.90
45283;DHT22;31023;44.994;1.796;2023-11-19T15:45:46;12.80;99.90
45283;DHT22;31023;44.994;1.796;2023-11-19T15:48:11;12.80;99.90
45283;DHT22;31023;44.994;1.796;2023-11-19T15:50:42;12.80;99.90
45283;DHT22;31023;44.994;1.796;2023-11-19T15:53:10;12.80;99.90
45283;DHT22;31023;44.994;1.796;2023-11-19T15:55:35;12.70;99.90
45283;DHT22;31023;44.994;1.796;2023-11-19T15:58:01;12.60;99.90